sensor_id;sensor_type;location;lat;lon;timestamp;pressure;altitude;pressure_sealevel;temperature;humidity
59419;BME280;45224;50.904;6.038;2023-03-21T00:01:25;99942.78;;;9.67;77.43
59419;BME280;45224;50.904;6.038;2023-03-21T00:02:56;99942.75;;;9.59;77.68
59419;BME280;45224;50.904;6.038;2023-03-21T00:04:26;99938.41;;;9.52;78.30
59419;BME280;45224;50.904;6.038;2023-03-21T00:05:57;99941.03;;;9.58;78.28
59419;BME280;45224;50.904;6.038;2023-03-21T00:07:27;99935.00;;;9.59;78.00
59419;BME280;45224;50.904;6.038;2023-03-21T00:08:58;99936.72;;;9.60;78.36
59419;BME280;45224;50.904;6.038;2023-03-21T00:10:28;99940.19;;;9.64;78.16
59419;BME280;45224;50.904;6.038;2023-03-21T00:11:59;99936.75;;;9.63;78.51
59419;BME280;45224;50.904;6.038;2023-03-21T00:13:31;99935.00;;;9.62;78.10
59419;BME280;45224;50.904;6.038;2023-03-21T00:15:04;99928.13;;;9.61;78.78
59419;BME280;45224;50.904;6.038;2023-03-21T00:16:35;99929.84;;;9.59;78.83
59419;BME280;45224;50.904;6.038;2023-03-21T00:18:06;99935.03;;;9.68;78.72
59419;BME280;45224;50.904;6.038;2023-03-21T00:19:40;99935.91;;;9.66;79.04
59419;BME280;45224;50.904;6.038;2023-03-21T00:21:14;99935.03;;;9.68;79.13
59419;BME280;45224;50.904;6.038;2023-03-21T00:22:45;99935.03;;;9.68;78.59
59419;BME280;45224;50.904;6.038;2023-03-21T00:24:15;99932.50;;;9.72;78.65
59419;BME280;45224;50.904;6.038;2023-03-21T00:25:46;99928.19;;;9.74;78.72
59419;BME280;45224;50.904;6.038;2023-03-21T00:27:16;99930.78;;;9.74;78.88
59419;BME280;45224;50.904;6.038;2023-03-21T00:28:49;99934.13;;;9.60;79.55
59419;BME280;45224;50.904;6.038;2023-03-21T00:30:20;99933.31;;;9.61;79.78
59419;BME280;45224;50.904;6.038;2023-03-21T00:31:53;99931.59;;;9.63;79.82
59419;BME280;45224;50.904;6.038;2023-03-21T00:33:24;99935.00;;;9.59;80.11
59419;BME280;45224;50.904;6.038;2023-03-21T00:34:56;99928.09;;;9.55;80.44
59419;BME280;45224;50.904;6.038;2023-03-21T00:36:27;99928.03;;;9.49;80.95
59419;BME280;45224;50.904;6.038;2023-03-21T00:37:57;99929.78;;;9.50;81.01
59419;BME280;45224;50.904;6.038;2023-03-21T00:39:28;99929.84;;;9.56;80.55
59419;BME280;45224;50.904;6.038;2023-03-21T00:40:58;99916.06;;;9.57;80.21
59419;BME280;45224;50.904;6.038;2023-03-21T00:42:29;99918.69;;;9.63;80.29
59419;BME280;45224;50.904;6.038;2023-03-21T00:44:00;99913.50;;;9.62;80.43
59419;BME280;45224;50.904;6.038;2023-03-21T00:45:31;99916.94;;;9.56;81.31
59419;BME280;45224;50.904;6.038;2023-03-21T00:47:05;99909.19;;;9.62;80.79
59419;BME280;45224;50.904;6.038;2023-03-21T00:48:37;99905.78;;;9.66;80.64
59419;BME280;45224;50.904;6.038;2023-03-21T00:50:10;99894.56;;;9.60;81.22
59419;BME280;45224;50.904;6.038;2023-03-21T00:51:41;99898.06;;;9.69;80.42
59419;BME280;45224;50.904;6.038;2023-03-21T00:53:13;99895.53;;;9.76;80.00
59419;BME280;45224;50.904;6.038;2023-03-21T00:54:45;99897.22;;;9.75;80.29
59419;BME280;45224;50.904;6.038;2023-03-21T00:56:16;99898.09;;;9.77;80.29
59419;BME280;45224;50.904;6.038;2023-03-21T00:57:46;99891.22;;;9.81;80.18
59419;BME280;45224;50.904;6.038;2023-03-21T00:59:17;99884.31;;;9.72;80.97
59419;BME280;45224;50.904;6.038;2023-03-21T01:00:47;99888.63;;;9.75;81.01
59419;BME280;45224;50.904;6.038;2023-03-21T01:02:18;99890.34;;;9.76;80.50
59419;BME280;45224;50.904;6.038;2023-03-21T01:03:51;99887.78;;;9.76;80.71
59419;BME280;45224;50.904;6.038;2023-03-21T01:05:42;99885.16;;;9.68;81.18
59419;BME280;45224;50.904;6.038;2023-03-21T01:07:32;99880.00;;;9.69;80.90
59419;BME280;45224;50.904;6.038;2023-03-21T01:09:02;99886.91;;;9.71;80.94
59419;BME280;45224;50.904;6.038;2023-03-21T01:10:37;99874.78;;;9.63;81.61
59419;BME280;45224;50.904;6.038;2023-03-21T01:12:07;99878.25;;;9.68;81.24
59419;BME280;45224;50.904;6.038;2023-03-21T01:13:41;99873.94;;;9.64;81.49
59419;BME280;45224;50.904;6.038;2023-03-21T01:15:11;99867.94;;;9.68;81.28
59419;BME280;45224;50.904;6.038;2023-03-21T01:16:42;99867.91;;;9.65;81.31
59419;BME280;45224;50.904;6.038;2023-03-21T01:18:14;99870.47;;;9.64;81.93
59419;BME280;45224;50.904;6.038;2023-03-21T01:19:45;99867.91;;;9.59;82.25
59419;BME280;45224;50.904;6.038;2023-03-21T01:21:15;99869.59;;;9.57;82.63
59419;BME280;45224;50.904;6.038;2023-03-21T01:22:46;99871.38;;;9.64;82.28
59419;BME280;45224;50.904;6.038;2023-03-21T01:24:16;99860.97;;;9.55;82.61
59419;BME280;45224;50.904;6.038;2023-03-21T01:25:48;99861.03;;;9.63;82.03
59419;BME280;45224;50.904;6.038;2023-03-21T01:27:19;99863.59;;;9.60;82.13
59419;BME280;45224;50.904;6.038;2023-03-21T01:28:50;99864.44;;;9.60;82.70
59419;BME280;45224;50.904;6.038;2023-03-21T01:30:21;99856.69;;;9.60;82.06
59419;BME280;45224;50.904;6.038;2023-03-21T01:31:51;99862.75;;;9.65;81.89
59419;BME280;45224;50.904;6.038;2023-03-21T01:33:22;99860.16;;;9.62;81.81
59419;BME280;45224;50.904;6.038;2023-03-21T01:34:53;99863.63;;;9.63;82.14
59419;BME280;45224;50.904;6.038;2023-03-21T01:36:25;99861.03;;;9.61;82.47
59419;BME280;45224;50.904;6.038;2023-03-21T01:38:00;99857.56;;;9.59;82.61
59419;BME280;45224;50.904;6.038;2023-03-21T01:39:31;99853.25;;;9.55;82.58
59419;BME280;45224;50.904;6.038;2023-03-21T01:41:04;99854.97;;;9.55;83.12
59419;BME280;45224;50.904;6.038;2023-03-21T01:42:39;99857.56;;;9.56;82.66
59419;BME280;45224;50.904;6.038;2023-03-21T01:44:17;99857.56;;;9.55;83.40
59419;BME280;45224;50.904;6.038;2023-03-21T01:47:57;99836.84;;;9.44;83.94
59419;BME280;45224;50.904;6.038;2023-03-21T01:49:42;99847.19;;;9.47;83.11
59419;BME280;45224;50.904;6.038;2023-03-21T01:51:24;99841.13;;;9.42;83.47
59419;BME280;45224;50.904;6.038;2023-03-21T01:53:00;99842.88;;;9.47;82.87
59419;BME280;45224;50.904;6.038;2023-03-21T01:54:37;99829.94;;;9.44;82.89
59419;BME280;45224;50.904;6.038;2023-03-21T01:56:31;99836.84;;;9.44;82.93
59419;BME280;45224;50.904;6.038;2023-03-21T01:58:10;99833.41;;;9.42;82.97
59419;BME280;45224;50.904;6.038;2023-03-21T02:00:04;99834.28;;;9.47;82.72
59419;BME280;45224;50.904;6.038;2023-03-21T02:01:55;99832.53;;;9.47;82.50
59419;BME280;45224;50.904;6.038;2023-03-21T02:03:29;99824.78;;;9.37;83.14
59419;BME280;45224;50.904;6.038;2023-03-21T02:05:38;99826.47;;;9.38;83.05
59419;BME280;45224;50.904;6.038;2023-03-21T02:07:14;99830.81;;;9.43;82.78
59419;BME280;45224;50.904;6.038;2023-03-21T02:09:00;99822.22;;;9.46;82.45
59419;BME280;45224;50.904;6.038;2023-03-21T02:10:31;99817.06;;;9.47;82.21
59419;BME280;45224;50.904;6.038;2023-03-21T02:12:04;99823.97;;;9.48;82.13
59419;BME280;45224;50.904;6.038;2023-03-21T02:13:36;99816.22;;;9.47;82.35
59419;BME280;45224;50.904;6.038;2023-03-21T02:15:10;99811.06;;;9.50;81.83
59419;BME280;45224;50.904;6.038;2023-03-21T02:19:39;99811.91;;;9.47;82.18
59419;BME280;45224;50.904;6.038;2023-03-21T02:21:08;99803.31;;;9.45;82.37
59419;BME280;45224;50.904;6.038;2023-03-21T02:22:59;99800.72;;;9.47;82.23
59419;BME280;45224;50.904;6.038;2023-03-21T02:24:56;99794.72;;;9.46;82.06
59419;BME280;45224;50.904;6.038;2023-03-21T02:28:16;99792.13;;;9.48;81.50
59419;BME280;45224;50.904;6.038;2023-03-21T02:32:02;99787.00;;;9.57;81.11
59419;BME280;45224;50.904;6.038;2023-03-21T02:34:33;99788.72;;;9.58;81.35
59419;BME280;45224;50.904;6.038;2023-03-21T02:38:17;99785.31;;;9.59;81.43
59419;BME280;45224;50.904;6.038;2023-03-21T02:39:55;99781.84;;;9.62;80.62
59419;BME280;45224;50.904;6.038;2023-03-21T02:43:04;99777.56;;;9.65;80.76
59419;BME280;45224;50.904;6.038;2023-03-21T02:44:59;99770.66;;;9.60;80.86
59419;BME280;45224;50.904;6.038;2023-03-21T02:46:48;99771.53;;;9.63;80.84
59419;BME280;45224;50.904;6.038;2023-03-21T02:48:33;99771.53;;;9.62;81.25
59419;BME280;45224;50.904;6.038;2023-03-21T02:50:15;99774.09;;;9.59;80.67
59419;BME280;45224;50.904;6.038;2023-03-21T02:51:48;99767.25;;;9.61;80.54
59419;BME280;45224;50.904;6.038;2023-03-21T02:53:23;99771.53;;;9.63;81.05
59419;BME280;45224;50.904;6.038;2023-03-21T02:54:57;99768.09;;;9.63;80.51
59419;BME280;45224;50.904;6.038;2023-03-21T02:56:36;99765.53;;;9.66;80.52
59419;BME280;45224;50.904;6.038;2023-03-21T02:58:10;99754.31;;;9.62;80.14
59419;BME280;45224;50.904;6.038;2023-03-21T02:59:42;99762.97;;;9.67;79.89
59419;BME280;45224;50.904;6.038;2023-03-21T03:01:18;99769.81;;;9.67;80.53
59419;BME280;45224;50.904;6.038;2023-03-21T03:02:52;99766.41;;;9.69;79.94
59419;BME280;45224;50.904;6.038;2023-03-21T03:04:26;99768.97;;;9.69;80.34
59419;BME280;45224;50.904;6.038;2023-03-21T03:05:59;99762.97;;;9.71;80.02
59419;BME280;45224;50.904;6.038;2023-03-21T03:07:40;99762.09;;;9.75;80.09
59419;BME280;45224;50.904;6.038;2023-03-21T03:11:27;99762.97;;;9.77;79.67
59419;BME280;45224;50.904;6.038;2023-03-21T03:19:10;99760.38;;;9.75;79.22
59419;BME280;45224;50.904;6.038;2023-03-21T03:21:05;99756.94;;;9.78;79.59
59419;BME280;45224;50.904;6.038;2023-03-21T03:22:47;99756.94;;;9.78;79.72
59419;BME280;45224;50.904;6.038;2023-03-21T03:24:26;99758.69;;;9.80;79.36
59419;BME280;45224;50.904;6.038;2023-03-21T03:26:07;99744.91;;;9.72;79.65
59419;BME280;45224;50.904;6.038;2023-03-21T03:27:42;99754.34;;;9.75;79.62
59419;BME280;45224;50.904;6.038;2023-03-21T03:29:16;99752.63;;;9.77;79.69
59419;BME280;45224;50.904;6.038;2023-03-21T03:30:49;99742.31;;;9.83;79.66
59419;BME280;45224;50.904;6.038;2023-03-21T03:32:29;99738.88;;;9.78;80.10
59419;BME280;45224;50.904;6.038;2023-03-21T03:34:05;99739.75;;;9.81;80.61
59419;BME280;45224;50.904;6.038;2023-03-21T03:35:37;99746.66;;;9.85;80.17
59419;BME280;45224;50.904;6.038;2023-03-21T03:37:13;99744.06;;;9.85;79.90
59419;BME280;45224;50.904;6.038;2023-03-21T03:38:47;99742.34;;;9.86;79.96
59419;BME280;45224;50.904;6.038;2023-03-21T03:40:34;99740.63;;;9.91;79.94
59419;BME280;45224;50.904;6.038;2023-03-21T03:42:23;99742.34;;;9.92;80.06
59419;BME280;45224;50.904;6.038;2023-03-21T03:44:02;99741.50;;;9.87;80.71
59419;BME280;45224;50.904;6.038;2023-03-21T03:45:46;99735.44;;;9.88;80.65
59419;BME280;45224;50.904;6.038;2023-03-21T03:47:37;99738.03;;;9.82;81.32
59419;BME280;45224;50.904;6.038;2023-03-21T03:49:16;99742.34;;;9.86;81.18
59419;BME280;45224;50.904;6.038;2023-03-21T03:50:55;99730.28;;;9.88;81.19
59419;BME280;45224;50.904;6.038;2023-03-21T03:52:45;99735.44;;;9.73;81.47
59419;BME280;45224;50.904;6.038;2023-03-21T03:54:26;99731.09;;;9.70;82.36
59419;BME280;45224;50.904;6.038;2023-03-21T03:55:59;99738.88;;;9.75;82.23
59419;BME280;45224;50.904;6.038;2023-03-21T03:57:31;99732.00;;;9.83;81.96
59419;BME280;45224;50.904;6.038;2023-03-21T03:59:03;99732.84;;;9.68;83.03
59419;BME280;45224;50.904;6.038;2023-03-21T04:01:02;99738.00;;;9.71;82.91
59419;BME280;45224;50.904;6.038;2023-03-21T04:02:33;99725.94;;;9.68;82.87
59419;BME280;45224;50.904;6.038;2023-03-21T04:04:06;99737.16;;;9.71;82.51
59419;BME280;45224;50.904;6.038;2023-03-21T04:05:36;99733.66;;;9.65;82.98
59419;BME280;45224;50.904;6.038;2023-03-21T04:07:07;99730.25;;;9.71;82.94
59419;BME280;45224;50.904;6.038;2023-03-21T04:08:40;99728.53;;;9.68;83.42
59419;BME280;45224;50.904;6.038;2023-03-21T04:10:10;99726.81;;;9.71;82.62
59419;BME280;45224;50.904;6.038;2023-03-21T04:11:44;99735.44;;;9.79;82.60
59419;BME280;45224;50.904;6.038;2023-03-21T04:13:15;99731.13;;;9.73;82.81
59419;BME280;45224;50.904;6.038;2023-03-21T04:14:52;99727.69;;;9.79;82.07
59419;BME280;45224;50.904;6.038;2023-03-21T04:16:22;99724.25;;;9.81;82.40
59419;BME280;45224;50.904;6.038;2023-03-21T04:17:53;99730.25;;;9.69;82.60
59419;BME280;45224;50.904;6.038;2023-03-21T04:19:24;99728.53;;;9.72;82.49
59419;BME280;45224;50.904;6.038;2023-03-21T04:20:54;99723.38;;;9.78;82.48
59419;BME280;45224;50.904;6.038;2023-03-21T04:22:25;99725.13;;;9.76;82.00
59419;BME280;45224;50.904;6.038;2023-03-21T04:23:56;99728.56;;;9.81;82.53
59419;BME280;45224;50.904;6.038;2023-03-21T04:25:27;99720.81;;;9.82;82.04
59419;BME280;45224;50.904;6.038;2023-03-21T04:27:00;99721.66;;;9.80;82.08
59419;BME280;45224;50.904;6.038;2023-03-21T04:28:42;99724.25;;;9.84;82.02
59419;BME280;45224;50.904;6.038;2023-03-21T04:30:42;99726.84;;;9.83;81.94
59419;BME280;45224;50.904;6.038;2023-03-21T04:32:18;99718.22;;;9.78;82.04
59419;BME280;45224;50.904;6.038;2023-03-21T04:34:04;99730.28;;;9.79;81.69
59419;BME280;45224;50.904;6.038;2023-03-21T04:35:39;99725.97;;;9.76;81.97
59419;BME280;45224;50.904;6.038;2023-03-21T04:37:12;99723.41;;;9.81;81.83
59419;BME280;45224;50.904;6.038;2023-03-21T04:38:44;99732.84;;;9.85;81.74
59419;BME280;45224;50.904;6.038;2023-03-21T04:40:19;99719.94;;;9.85;81.61
59419;BME280;45224;50.904;6.038;2023-03-21T04:41:50;99718.25;;;9.84;81.62
59419;BME280;45224;50.904;6.038;2023-03-21T04:43:20;99719.09;;;9.86;81.32
59419;BME280;45224;50.904;6.038;2023-03-21T04:44:53;99725.09;;;9.85;81.65
59419;BME280;45224;50.904;6.038;2023-03-21T04:46:23;99728.56;;;9.82;81.78
59419;BME280;45224;50.904;6.038;2023-03-21T04:47:54;99711.34;;;9.81;81.68
59419;BME280;45224;50.904;6.038;2023-03-21T04:49:26;99722.53;;;9.86;81.89
59419;BME280;45224;50.904;6.038;2023-03-21T04:50:57;99727.69;;;9.86;81.34
59419;BME280;45224;50.904;6.038;2023-03-21T04:52:27;99724.25;;;9.86;81.53
59419;BME280;45224;50.904;6.038;2023-03-21T04:53:58;99715.63;;;9.76;81.80
59419;BME280;45224;50.904;6.038;2023-03-21T04:55:28;99715.66;;;9.84;81.40
59419;BME280;45224;50.904;6.038;2023-03-21T04:57:00;99719.94;;;9.86;81.48
59419;BME280;45224;50.904;6.038;2023-03-21T04:58:31;99718.25;;;9.84;81.45
59419;BME280;45224;50.904;6.038;2023-03-21T05:00:05;99721.66;;;9.83;81.23
59419;BME280;45224;50.904;6.038;2023-03-21T05:01:39;99712.19;;;9.76;82.02
59419;BME280;45224;50.904;6.038;2023-03-21T05:03:10;99721.66;;;9.80;81.62
59419;BME280;45224;50.904;6.038;2023-03-21T05:04:45;99718.25;;;9.87;81.32
59419;BME280;45224;50.904;6.038;2023-03-21T05:06:16;99716.47;;;9.74;81.28
59419;BME280;45224;50.904;6.038;2023-03-21T05:07:47;99719.06;;;9.78;81.22
59419;BME280;45224;50.904;6.038;2023-03-21T05:09:17;99718.22;;;9.78;81.15
59419;BME280;45224;50.904;6.038;2023-03-21T05:10:47;99717.38;;;9.74;81.80
59419;BME280;45224;50.904;6.038;2023-03-21T05:12:18;99716.50;;;9.77;81.83
59419;BME280;45224;50.904;6.038;2023-03-21T05:13:50;99706.16;;;9.80;81.08
59419;BME280;45224;50.904;6.038;2023-03-21T05:15:20;99712.22;;;9.83;81.42
59419;BME280;45224;50.904;6.038;2023-03-21T05:16:51;99713.06;;;9.76;81.32
59419;BME280;45224;50.904;6.038;2023-03-21T05:18:23;99711.34;;;9.72;81.33
59419;BME280;45224;50.904;6.038;2023-03-21T05:20:06;99707.06;;;9.82;81.61
59419;BME280;45224;50.904;6.038;2023-03-21T05:21:39;99709.63;;;9.76;81.44
59419;BME280;45224;50.904;6.038;2023-03-21T05:23:20;99717.34;;;9.73;81.15
59419;BME280;45224;50.904;6.038;2023-03-21T05:24:51;99723.38;;;9.72;80.51
59419;BME280;45224;50.904;6.038;2023-03-21T05:26:41;99714.75;;;9.66;81.62
59419;BME280;45224;50.904;6.038;2023-03-21T05:28:17;99719.88;;;9.51;80.62
59419;BME280;45224;50.904;6.038;2023-03-21T05:29:48;99728.53;;;9.59;81.33
59419;BME280;45224;50.904;6.038;2023-03-21T05:31:20;99729.38;;;9.58;81.21
59419;BME280;45224;50.904;6.038;2023-03-21T05:32:55;99731.91;;;9.52;81.38
59419;BME280;45224;50.904;6.038;2023-03-21T05:34:26;99733.63;;;9.44;80.97
59419;BME280;45224;50.904;6.038;2023-03-21T05:35:58;99726.75;;;9.52;80.87
59419;BME280;45224;50.904;6.038;2023-03-21T05:37:32;99740.53;;;9.48;81.35
59419;BME280;45224;50.904;6.038;2023-03-21T05:39:04;99735.34;;;9.51;81.41
59419;BME280;45224;50.904;6.038;2023-03-21T05:40:37;99748.25;;;9.51;81.45
59419;BME280;45224;50.904;6.038;2023-03-21T05:42:08;99738.78;;;9.47;81.33
59419;BME280;45224;50.904;6.038;2023-03-21T05:43:39;99743.94;;;9.44;81.73
59419;BME280;45224;50.904;6.038;2023-03-21T05:45:10;99735.31;;;9.39;82.29
59419;BME280;45224;50.904;6.038;2023-03-21T05:46:42;99742.22;;;9.46;82.76
59419;BME280;45224;50.904;6.038;2023-03-21T05:48:13;99737.06;;;9.38;83.21
59419;BME280;45224;50.904;6.038;2023-03-21T05:50:01;99743.09;;;9.54;82.72
59419;BME280;45224;50.904;6.038;2023-03-21T05:51:34;99734.50;;;9.49;83.53
59419;BME280;45224;50.904;6.038;2023-03-21T05:53:05;99744.00;;;9.56;84.92
59419;BME280;45224;50.904;6.038;2023-03-21T05:54:36;99748.25;;;9.54;86.03
59419;BME280;45224;50.904;6.038;2023-03-21T05:56:07;99747.44;;;9.58;86.44
59419;BME280;45224;50.904;6.038;2023-03-21T05:57:58;99740.50;;;9.51;87.97
59419;BME280;45224;50.904;6.038;2023-03-21T05:59:33;99745.66;;;9.39;89.88
59419;BME280;45224;50.904;6.038;2023-03-21T06:01:05;99742.19;;;9.34;90.50
59419;BME280;45224;50.904;6.038;2023-03-21T06:02:39;99737.88;;;9.34;91.24
59419;BME280;45224;50.904;6.038;2023-03-21T06:04:16;99741.28;;;9.21;92.47
59419;BME280;45224;50.904;6.038;2023-03-21T06:05:47;99739.53;;;9.21;92.78
59419;BME280;45224;50.904;6.038;2023-03-21T06:07:23;99741.28;;;9.25;92.34
59419;BME280;45224;50.904;6.038;2023-03-21T06:08:54;99740.41;;;9.25;92.44
59419;BME280;45224;50.904;6.038;2023-03-21T06:10:24;99732.63;;;9.17;92.90
59419;BME280;45224;50.904;6.038;2023-03-21T06:11:56;99724.03;;;9.13;92.90
59419;BME280;45224;50.904;6.038;2023-03-21T06:13:56;99730.94;;;9.18;93.07
59419;BME280;45224;50.904;6.038;2023-03-21T06:15:27;99724.91;;;9.20;92.51
59419;BME280;45224;50.904;6.038;2023-03-21T06:17:05;99728.38;;;9.21;92.96
59419;BME280;45224;50.904;6.038;2023-03-21T06:18:35;99733.53;;;9.19;93.03
59419;BME280;45224;50.904;6.038;2023-03-21T06:20:20;99727.47;;;9.11;94.70
59419;BME280;45224;50.904;6.038;2023-03-21T06:21:55;99725.78;;;9.21;93.62
59419;BME280;45224;50.904;6.038;2023-03-21T06:23:26;99723.22;;;9.22;94.39
59419;BME280;45224;50.904;6.038;2023-03-21T06:24:57;99716.31;;;9.20;94.54
59419;BME280;45224;50.904;6.038;2023-03-21T06:26:28;99714.59;;;9.23;94.58
59419;BME280;45224;50.904;6.038;2023-03-21T06:27:58;99722.41;;;9.39;93.62
59419;BME280;45224;50.904;6.038;2023-03-21T06:29:29;99714.63;;;9.31;95.02
59419;BME280;45224;50.904;6.038;2023-03-21T06:31:00;99719.81;;;9.36;95.18
59419;BME280;45224;50.904;6.038;2023-03-21T06:32:32;99714.63;;;9.31;96.61
59419;BME280;45224;50.904;6.038;2023-03-21T06:34:11;99714.63;;;9.25;97.26
59419;BME280;45224;50.904;6.038;2023-03-21T06:35:42;99713.78;;;9.27;96.88
59419;BME280;45224;50.904;6.038;2023-03-21T06:37:12;99711.22;;;9.30;97.06
59419;BME280;45224;50.904;6.038;2023-03-21T06:38:44;99704.28;;;9.23;97.75
59419;BME280;45224;50.904;6.038;2023-03-21T06:40:16;99702.59;;;9.22;97.90
59419;BME280;45224;50.904;6.038;2023-03-21T06:41:47;99707.75;;;9.22;98.18
59419;BME280;45224;50.904;6.038;2023-03-21T06:43:17;99711.19;;;9.26;98.03
59419;BME280;45224;50.904;6.038;2023-03-21T06:44:49;99714.63;;;9.29;97.19
59419;BME280;45224;50.904;6.038;2023-03-21T06:46:20;99699.16;;;9.32;96.90
59419;BME280;45224;50.904;6.038;2023-03-21T06:47:51;99704.34;;;9.39;96.77
59419;BME280;45224;50.904;6.038;2023-03-21T06:49:37;99697.44;;;9.31;98.19
59419;BME280;45224;50.904;6.038;2023-03-21T06:51:14;99694.88;;;9.36;97.51
59419;BME280;45224;50.904;6.038;2023-03-21T06:52:54;99696.63;;;9.42;96.53
59419;BME280;45224;50.904;6.038;2023-03-21T06:54:27;99694.03;;;9.42;96.66
59419;BME280;45224;50.904;6.038;2023-03-21T06:56:04;99696.53;;;9.20;98.67
59419;BME280;45224;50.904;6.038;2023-03-21T06:57:36;99700.84;;;9.21;98.43
59419;BME280;45224;50.904;6.038;2023-03-21T06:59:07;99699.13;;;9.23;98.52
59419;BME280;45224;50.904;6.038;2023-03-21T07:01:13;99700.91;;;9.34;97.50
59419;BME280;45224;50.904;6.038;2023-03-21T07:02:54;99689.69;;;9.33;97.44
59419;BME280;45224;50.904;6.038;2023-03-21T07:04:28;99696.59;;;9.32;97.49
59419;BME280;45224;50.904;6.038;2023-03-21T07:06:04;99701.75;;;9.36;96.72
59419;BME280;45224;50.904;6.038;2023-03-21T07:07:36;99698.34;;;9.44;96.36
59419;BME280;45224;50.904;6.038;2023-03-21T07:09:07;99697.50;;;9.45;95.60
59419;BME280;45224;50.904;6.038;2023-03-21T07:10:42;99706.94;;;9.37;95.82
59419;BME280;45224;50.904;6.038;2023-03-21T07:12:13;99711.19;;;9.27;95.10
59419;BME280;45224;50.904;6.038;2023-03-21T07:14:02;99699.16;;;9.32;94.99
59419;BME280;45224;50.904;6.038;2023-03-21T07:15:33;99700.91;;;9.37;94.54
59419;BME280;45224;50.904;6.038;2023-03-21T07:17:07;99702.63;;;9.41;94.12
59419;BME280;45224;50.904;6.038;2023-03-21T07:18:38;99702.63;;;9.41;94.33
59419;BME280;45224;50.904;6.038;2023-03-21T07:20:09;99698.34;;;9.44;93.60
59419;BME280;45224;50.904;6.038;2023-03-21T07:21:42;99698.34;;;9.38;94.27
59419;BME280;45224;50.904;6.038;2023-03-21T07:23:12;99704.38;;;9.51;93.69
59419;BME280;45224;50.904;6.038;2023-03-21T07:24:43;99707.84;;;9.56;93.09
59419;BME280;45224;50.904;6.038;2023-03-21T07:26:13;99704.38;;;9.54;92.91
59419;BME280;45224;50.904;6.038;2023-03-21T07:27:45;99702.69;;;9.53;92.24
59419;BME280;45224;50.904;6.038;2023-03-21T07:29:15;99705.25;;;9.53;93.00
59419;BME280;45224;50.904;6.038;2023-03-21T07:30:54;99706.13;;;9.55;92.38
59419;BME280;45224;50.904;6.038;2023-03-21T07:32:25;99707.84;;;9.53;92.25
59419;BME280;45224;50.904;6.038;2023-03-21T07:33:59;99709.56;;;9.48;92.03
59419;BME280;45224;50.904;6.038;2023-03-21T07:35:30;99707.88;;;9.58;91.82
59419;BME280;45224;50.904;6.038;2023-03-21T07:37:00;99699.25;;;9.63;91.62
59419;BME280;45224;50.904;6.038;2023-03-21T07:38:31;99695.81;;;9.61;91.23
59419;BME280;45224;50.904;6.038;2023-03-21T07:40:02;99701.84;;;9.63;91.58
59419;BME280;45224;50.904;6.038;2023-03-21T07:41:39;99699.28;;;9.73;91.18
59419;BME280;45224;50.904;6.038;2023-03-21T07:43:33;99707.88;;;9.75;91.41
59419;BME280;45224;50.904;6.038;2023-03-21T07:45:05;99703.59;;;9.83;90.45
59419;BME280;45224;50.904;6.038;2023-03-21T07:46:37;99701.03;;;9.87;90.66
59419;BME280;45224;50.904;6.038;2023-03-21T07:48:08;99705.34;;;9.84;90.39
59419;BME280;45224;50.904;6.038;2023-03-21T07:49:39;99705.34;;;9.92;90.21
59419;BME280;45224;50.904;6.038;2023-03-21T07:51:10;99707.06;;;9.93;90.25
59419;BME280;45224;50.904;6.038;2023-03-21T07:52:40;99707.03;;;9.90;89.56
59419;BME280;45224;50.904;6.038;2023-03-21T07:54:11;99712.22;;;9.93;90.18
59419;BME280;45224;50.904;6.038;2023-03-21T07:55:41;99712.22;;;9.97;89.74
59419;BME280;45224;50.904;6.038;2023-03-21T07:57:12;99707.06;;;9.94;89.78
59419;BME280;45224;50.904;6.038;2023-03-21T07:58:42;99714.81;;;9.97;89.37
59419;BME280;45224;50.904;6.038;2023-03-21T08:00:14;99716.53;;;9.89;88.48
59419;BME280;45224;50.904;6.038;2023-03-21T08:01:52;99712.22;;;9.99;87.73
59419;BME280;45224;50.904;6.038;2023-03-21T08:03:22;99711.38;;;9.95;87.26
59419;BME280;45224;50.904;6.038;2023-03-21T08:04:53;99708.78;;;9.94;88.03
59419;BME280;45224;50.904;6.038;2023-03-21T08:06:26;99717.38;;;9.96;87.66
59419;BME280;45224;50.904;6.038;2023-03-21T08:07:58;99708.81;;;10.03;87.33
59419;BME280;45224;50.904;6.038;2023-03-21T08:09:28;99714.84;;;10.10;86.33
59419;BME280;45224;50.904;6.038;2023-03-21T08:10:59;99718.25;;;10.07;86.16
59419;BME280;45224;50.904;6.038;2023-03-21T08:12:30;99716.53;;;10.14;85.82
59419;BME280;45224;50.904;6.038;2023-03-21T08:14:00;99712.22;;;10.19;85.95
59419;BME280;45224;50.904;6.038;2023-03-21T08:15:31;99708.81;;;10.21;85.87
59419;BME280;45224;50.904;6.038;2023-03-21T08:17:02;99715.69;;;10.21;85.15
59419;BME280;45224;50.904;6.038;2023-03-21T08:18:33;99712.25;;;10.25;85.28
59419;BME280;45224;50.904;6.038;2023-03-21T08:20:08;99715.69;;;10.19;85.49
59419;BME280;45224;50.904;6.038;2023-03-21T08:21:39;99708.84;;;10.32;84.95
59419;BME280;45224;50.904;6.038;2023-03-21T08:23:09;99714.00;;;10.37;84.20
59419;BME280;45224;50.904;6.038;2023-03-21T08:24:40;99714.81;;;10.28;83.36
59419;BME280;45224;50.904;6.038;2023-03-21T08:26:11;99714.00;;;10.34;83.98
59419;BME280;45224;50.904;6.038;2023-03-21T08:27:48;99714.88;;;10.34;83.33
59419;BME280;45224;50.904;6.038;2023-03-21T08:29:18;99712.28;;;10.40;83.59
59419;BME280;45224;50.904;6.038;2023-03-21T08:30:50;99709.69;;;10.40;83.44
59419;BME280;45224;50.904;6.038;2023-03-21T08:32:21;99707.13;;;10.40;82.55
59419;BME280;45224;50.904;6.038;2023-03-21T08:33:58;99707.97;;;10.36;82.41
59419;BME280;45224;50.904;6.038;2023-03-21T08:35:29;99714.88;;;10.40;83.17
59419;BME280;45224;50.904;6.038;2023-03-21T08:37:00;99709.69;;;10.44;84.03
59419;BME280;45224;50.904;6.038;2023-03-21T08:38:31;99718.31;;;10.43;84.20
59419;BME280;45224;50.904;6.038;2023-03-21T08:40:05;99719.19;;;10.34;84.81
59419;BME280;45224;50.904;6.038;2023-03-21T08:41:38;99723.47;;;10.33;85.21
59419;BME280;45224;50.904;6.038;2023-03-21T08:43:08;99723.47;;;10.33;85.79
59419;BME280;45224;50.904;6.038;2023-03-21T08:44:39;99726.06;;;10.36;86.01
59419;BME280;45224;50.904;6.038;2023-03-21T08:46:10;99724.34;;;10.38;86.06
59419;BME280;45224;50.904;6.038;2023-03-21T08:47:41;99727.78;;;10.44;85.84
59419;BME280;45224;50.904;6.038;2023-03-21T08:49:12;99724.31;;;10.48;85.75